Hermosa, South Dakota
Current Conditions -  °F | °C
As of 6:52 PM on Wednesday 22 Oct 2014 (Local Time) from KRAP Reporting Station
Clear Clear  
Wind Chill: 43°   Ceiling: Unl
Heat Index: 47°   Visibility: 10mi
Dew Point: 32°   Wind: 8mph
Humidity: 56%   Direction: 40°NE
Pressure: 30.02"   Gusts: NA
Location:  43.84°N, 103.19°W
Report Text: KRAP 230052Z 04007KT 10SM CLR 08/00 A3002 RMK AO2 SLP169 T00830000
Loading
Personal Weather Stations






























Interactive Weather Map
Tropical Storm Tracking
New forecast layout! Learn more

10-Day Weather Forecast

Advertisements
Track Severe Weather on mobile